Time;durP1;ratioP1;P1;durP2;ratioP2;P2;SDS_P1;SDS_P2;PMS_P1;PMS_P2;Temp;Humidity;BMP_temperature;BMP_pressure;BME280_temperature;BME280_humidity;BME280_pressure;Samples;Min_cycle;Max_cycle;Signal;HPM_P1;HPM_P2
2022/10/25 00:02:16;;;;;;;0.20;0.20;;;12.80;99.90;;;;;;4877257;29;20132;-72
2022/10/25 00:04:41;;;;;;;0.10;0.10;;;12.90;99.90;;;;;;4855279;29;20084;-72
2022/10/25 00:07:07;;;;;;;0.10;0.10;;;12.90;99.90;;;;;;4848355;29;20088;-72
2022/10/25 00:09:33;;;;;;;0.20;0.20;;;12.80;99.90;;;;;;4850699;29;20073;-72
2022/10/25 00:11:58;;;;;;;0.17;0.17;;;12.80;99.90;;;;;;4832477;29;20128;-72
2022/10/25 00:14:24;;;;;;;0.10;0.10;;;12.80;99.90;;;;;;4852079;29;20387;-72
2022/10/25 00:16:50;;;;;;;0.10;0.10;;;12.80;99.90;;;;;;4834249;29;20434;-72
2022/10/25 00:19:16;;;;;;;0.13;0.13;;;12.80;99.90;;;;;;4833241;29;20045;-72
2022/10/25 00:21:41;;;;;;;0.10;0.10;;;12.80;99.90;;;;;;4833811;29;20045;-72
2022/10/25 00:24:09;;;;;;;0.13;0.13;;;12.80;99.90;;;;;;4834346;29;20037;-72
2022/10/25 00:26:35;;;;;;;0.20;0.20;;;12.80;99.90;;;;;;4850950;29;20580;-72
2022/10/25 00:29:01;;;;;;;0.15;0.15;;;12.80;99.90;;;;;;4850822;29;20045;-72
2022/10/25 00:31:26;;;;;;;0.10;0.10;;;12.80;99.90;;;;;;4852507;29;20049;-71
2022/10/25 00:33:52;;;;;;;0.10;0.10;;;12.80;99.90;;;;;;4852122;29;20045;-73
2022/10/25 00:36:21;;;;;;;0.10;0.10;;;12.80;99.90;;;;;;4850150;29;20049;-74
2022/10/25 00:38:47;;;;;;;0.20;0.20;;;12.80;99.90;;;;;;4834668;29;20045;-74
2022/10/25 00:41:16;;;;;;;0.10;0.10;;;12.70;99.90;;;;;;4850340;29;20418;-74
2022/10/25 00:43:47;;;;;;;0.20;0.20;;;12.80;99.90;;;;;;4851272;29;20049;-72
2022/10/25 00:46:19;;;;;;;0.10;0.10;;;12.80;99.90;;;;;;4839993;29;20414;-72
2022/10/25 00:49:00;;;;;;;0.20;0.20;;;12.80;99.90;;;;;;4835612;29;20449;-72
2022/10/25 00:51:33;;;;;;;0.10;0.10;;;12.70;99.90;;;;;;4832616;29;20053;-72
2022/10/25 00:53:58;;;;;;;0.20;0.20;;;12.80;99.90;;;;;;4850758;29;20070;-72
2022/10/25 00:56:28;;;;;;;0.20;0.20;;;12.80;99.90;;;;;;4850469;29;20065;-71
2022/10/25 00:58:58;;;;;;;0.10;0.10;;;12.80;99.90;;;;;;4849097;29;20038;-71
2022/10/25 01:01:24;;;;;;;0.10;0.10;;;12.80;99.90;;;;;;4831628;29;20094;-74
2022/10/25 01:03:52;;;;;;;0.20;0.20;;;12.90;99.90;;;;;;4833592;29;20068;-72
2022/10/25 01:06:24;;;;;;;0.10;0.10;;;12.90;99.90;;;;;;4832198;29;20046;-72
2022/10/25 01:08:50;;;;;;;;;;;12.90;99.90;;;;;;4867099;29;20056;-72
2022/10/25 01:11:17;;;;;;;0.10;0.10;;;12.90;99.90;;;;;;4870367;29;19927;-72
2022/10/25 01:13:43;;;;;;;0.13;0.13;;;13.00;99.90;;;;;;4866765;29;20519;-72
2022/10/25 01:16:19;;;;;;;0.20;0.20;;;13.00;99.90;;;;;;4860242;29;20033;-72
2022/10/25 01:19:25;;;;;;;0.10;0.10;;;12.90;99.90;;;;;;4875961;29;20421;-72
2022/10/25 01:22:12;;;;;;;0.10;0.10;;;12.90;99.90;;;;;;4868301;29;20068;-72
2022/10/25 01:24:46;;;;;;;0.10;0.10;;;12.90;99.90;;;;;;4870802;29;20051;-72
2022/10/25 01:27:36;;;;;;;0.10;0.10;;;13.00;99.90;;;;;;4862530;29;20090;-73
2022/10/25 01:30:25;;;;;;;0.10;0.10;;;13.00;99.90;;;;;;4869068;29;20514;-72
2022/10/25 01:33:09;;;;;;;0.10;0.10;;;13.00;99.90;;;;;;4867536;29;20147;-72
2022/10/25 01:35:58;;;;;;;0.10;0.10;;;13.00;99.90;;;;;;4857628;29;20049;-73
2022/10/25 01:38:34;;;;;;;0.10;0.10;;;13.00;99.90;;;;;;4868338;29;20120;-73
2022/10/25 01:41:43;;;;;;;0.10;0.10;;;13.00;99.90;;;;;;4865700;29;20053;-73
2022/10/25 01:44:23;;;;;;;0.10;0.10;;;13.10;99.90;;;;;;4860233;29;20706;-73
2022/10/25 01:46:53;;;;;;;0.10;0.10;;;13.10;99.90;;;;;;4869079;29;20045;-73
2022/10/25 01:49:38;;;;;;;0.10;0.10;;;13.20;99.90;;;;;;4860724;29;20041;-73
2022/10/25 01:52:04;;;;;;;0.20;0.20;;;13.20;99.90;;;;;;4881059;29;20049;-73
2022/10/25 01:54:29;;;;;;;0.20;0.20;;;13.20;99.90;;;;;;4868737;29;20041;-72
2022/10/25 01:57:09;;;;;;;0.20;0.20;;;13.20;99.90;;;;;;4868931;29;20148;-72
2022/10/25 01:59:50;;;;;;;0.20;0.20;;;13.20;99.90;;;;;;4868046;29;20068;-73
2022/10/25 02:02:29;;;;;;;0.10;0.10;;;13.20;99.90;;;;;;4856170;29;20573;-73
2022/10/25 02:05:22;;;;;;;0.10;0.10;;;13.20;99.90;;;;;;4867416;29;20204;-73
2022/10/25 02:08:06;;;;;;;0.17;0.17;;;13.20;99.90;;;;;;4848216;29;20049;-73
2022/10/25 02:10:43;;;;;;;0.10;0.10;;;13.10;99.90;;;;;;4831504;29;20073;-73
2022/10/25 02:13:16;;;;;;;0.30;0.30;;;13.20;99.90;;;;;;4836844;29;20061;-73
2022/10/25 02:15:53;;;;;;;0.10;0.10;;;13.20;99.90;;;;;;4848652;29;20053;-73
2022/10/25 02:18:22;;;;;;;0.20;0.20;;;13.20;99.90;;;;;;4845779;29;20088;-73
2022/10/25 02:20:50;;;;;;;0.10;0.10;;;13.20;99.90;;;;;;4834026;29;20166;-73
2022/10/25 02:23:19;;;;;;;0.10;0.10;;;13.20;99.90;;;;;;4851994;29;20049;-73
2022/10/25 02:25:47;;;;;;;0.17;0.17;;;13.20;99.90;;;;;;4861367;29;20045;-73
2022/10/25 02:28:15;;;;;;;0.10;0.10;;;13.20;99.90;;;;;;4855770;29;20052;-73
2022/10/25 02:30:43;;;;;;;0.10;0.10;;;13.20;99.90;;;;;;4860237;29;20105;-73
2022/10/25 02:33:09;;;;;;;0.20;0.20;;;13.20;99.90;;;;;;4853357;29;20545;-73
2022/10/25 02:35:35;;;;;;;0.10;0.10;;;13.20;99.90;;;;;;4850099;29;20506;-73
2022/10/25 02:38:01;;;;;;;0.13;0.13;;;13.20;99.90;;;;;;4832261;29;20049;-73
2022/10/25 02:40:27;;;;;;;0.10;0.10;;;13.30;99.90;;;;;;4862297;29;20060;-73
2022/10/25 02:42:53;;;;;;;0.13;0.13;;;13.20;99.90;;;;;;4847306;29;20494;-73
2022/10/25 02:45:18;;;;;;;0.10;0.10;;;13.20;99.90;;;;;;4849089;29;20125;-73
2022/10/25 02:47:44;;;;;;;0.10;0.10;;;13.20;99.90;;;;;;4848835;29;20048;-73
2022/10/25 02:50:10;;;;;;;0.17;0.17;;;13.30;99.90;;;;;;4854857;29;20057;-73
2022/10/25 02:52:35;;;;;;;0.15;0.15;;;13.30;99.90;;;;;;4850692;29;20052;-73
2022/10/25 02:55:01;;;;;;;0.10;0.10;;;13.30;99.90;;;;;;4834073;29;20060;-73
2022/10/25 02:57:33;;;;;;;0.20;0.20;;;13.30;99.90;;;;;;4837852;29;20088;-73
2022/10/25 02:59:59;;;;;;;0.17;0.17;;;13.30;99.90;;;;;;4855551;29;20053;-74
2022/10/25 03:02:24;;;;;;;0.20;0.20;;;13.30;99.90;;;;;;4854731;29;20049;-73
2022/10/25 03:04:50;;;;;;;0.20;0.20;;;13.40;99.90;;;;;;4854960;29;20124;-73
2022/10/25 03:07:15;;;;;;;0.10;0.10;;;13.30;99.90;;;;;;4854520;29;20057;-73
2022/10/25 03:09:41;;;;;;;0.20;0.20;;;13.30;99.90;;;;;;4847983;29;20109;-73
2022/10/25 03:12:07;;;;;;;0.10;0.10;;;13.40;99.90;;;;;;4837449;29;20413;-73
2022/10/25 03:14:32;;;;;;;0.10;0.10;;;13.40;99.90;;;;;;4851019;29;20037;-73
2022/10/25 03:16:58;;;;;;;0.10;0.10;;;13.60;99.90;;;;;;4838056;29;20472;-73
2022/10/25 03:19:23;;;;;;;0.20;0.20;;;13.40;99.90;;;;;;4851796;29;20045;-72
2022/10/25 03:21:49;;;;;;;0.10;0.10;;;13.40;99.90;;;;;;4840692;29;20049;-72
2022/10/25 03:24:15;;;;;;;0.10;0.10;;;13.50;99.90;;;;;;4837959;29;20161;-73
2022/10/25 03:26:40;;;;;;;0.20;0.20;;;13.40;99.90;;;;;;4853465;29;20053;-73
2022/10/25 03:29:06;;;;;;;0.10;0.10;;;13.40;99.90;;;;;;4836743;29;20437;-72
2022/10/25 03:31:32;;;;;;;0.20;0.20;;;13.40;99.90;;;;;;4851648;29;20041;-73
2022/10/25 03:33:57;;;;;;;0.10;0.10;;;13.40;99.90;;;;;;4855764;29;20068;-73
2022/10/25 03:36:23;;;;;;;0.20;0.20;;;13.40;99.90;;;;;;4837417;29;20060;-73
2022/10/25 03:38:48;;;;;;;0.20;0.20;;;13.40;99.90;;;;;;4852302;29;20173;-72
2022/10/25 03:41:14;;;;;;;0.10;0.10;;;13.40;99.90;;;;;;4850516;29;20049;-72
2022/10/25 03:43:39;;;;;;;0.20;0.20;;;13.40;99.90;;;;;;4837420;29;20546;-72
2022/10/25 03:46:05;;;;;;;0.10;0.10;;;13.30;99.90;;;;;;4837435;29;20041;-72
2022/10/25 03:48:31;;;;;;;0.10;0.10;;;13.40;99.90;;;;;;4850768;29;20371;-72
2022/10/25 03:50:56;;;;;;;0.10;0.10;;;13.40;99.90;;;;;;4862751;29;20128;-72
2022/10/25 03:53:22;;;;;;;0.10;0.10;;;13.40;99.90;;;;;;4855101;29;20041;-72
2022/10/25 03:55:51;;;;;;;0.10;0.10;;;13.30;99.90;;;;;;4851300;29;20683;-73
2022/10/25 03:58:17;;;;;;;0.10;0.10;;;13.30;99.90;;;;;;4835442;29;20520;-73
2022/10/25 04:00:42;;;;;;;0.20;0.20;;;13.30;99.90;;;;;;4840285;29;20608;-72
2022/10/25 04:03:10;;;;;;;0.20;0.20;;;13.40;99.90;;;;;;4835067;29;20052;-72
2022/10/25 04:05:36;;;;;;;0.10;0.10;;;13.40;99.90;;;;;;4834066;29;20050;-72
2022/10/25 04:08:02;;;;;;;0.10;0.10;;;13.40;99.90;;;;;;4847109;29;20045;-73
2022/10/25 04:10:28;;;;;;;0.20;0.20;;;13.30;99.90;;;;;;4867121;29;20068;-74
2022/10/25 04:12:53;;;;;;;0.20;0.20;;;13.40;99.90;;;;;;4857131;29;20050;-73
2022/10/25 04:15:19;;;;;;;0.10;0.10;;;13.30;99.90;;;;;;4858641;29;20153;-73
2022/10/25 04:17:48;;;;;;;0.13;0.13;;;13.30;99.90;;;;;;4874799;29;20045;-72
2022/10/25 04:20:14;;;;;;;0.20;0.20;;;13.40;99.90;;;;;;4860755;29;20056;-73
2022/10/25 04:22:40;;;;;;;0.20;0.20;;;13.40;99.90;;;;;;4861999;29;20549;-73
2022/10/25 04:25:06;;;;;;;0.20;0.20;;;13.40;99.90;;;;;;4875410;29;20084;-73
2022/10/25 04:27:31;;;;;;;0.10;0.10;;;13.40;99.90;;;;;;4876877;29;20041;-73
2022/10/25 04:29:57;;;;;;;0.20;0.20;;;13.30;99.90;;;;;;4877158;29;20097;-73
2022/10/25 04:32:23;;;;;;;0.10;0.10;;;13.30;99.90;;;;;;4878381;29;20049;-73
2022/10/25 04:34:48;;;;;;;0.10;0.10;;;13.30;99.90;;;;;;4878267;29;20113;-73
2022/10/25 04:37:15;;;;;;;0.10;0.10;;;13.30;99.90;;;;;;4857706;29;20049;-72
2022/10/25 04:39:40;;;;;;;0.17;0.17;;;13.30;99.90;;;;;;4870659;29;20097;-73
2022/10/25 04:42:09;;;;;;;0.10;0.10;;;13.40;99.90;;;;;;4875124;29;20442;-73
2022/10/25 04:44:34;;;;;;;0.10;0.10;;;13.20;99.90;;;;;;4860870;29;20213;-73
2022/10/25 04:47:00;;;;;;;0.10;0.10;;;13.30;99.90;;;;;;4859756;29;20493;-73
2022/10/25 04:49:26;;;;;;;0.20;0.20;;;13.20;99.90;;;;;;4860476;29;20088;-72
2022/10/25 04:51:51;;;;;;;0.20;0.20;;;13.20;99.90;;;;;;4860708;29;20041;-73
2022/10/25 04:54:17;;;;;;;0.20;0.20;;;13.20;99.90;;;;;;4878062;29;20049;-73
2022/10/25 04:56:42;;;;;;;0.17;0.17;;;13.20;99.90;;;;;;4876657;29;20029;-73
2022/10/25 04:59:08;;;;;;;0.10;0.10;;;13.10;99.90;;;;;;4859862;29;20101;-73
2022/10/25 05:01:34;;;;;;;0.10;0.10;;;13.20;99.90;;;;;;4859806;29;20128;-73
2022/10/25 05:04:00;;;;;;;0.10;0.10;;;13.20;99.90;;;;;;4858512;29;20083;-73
2022/10/25 05:06:26;;;;;;;0.10;0.10;;;13.20;99.90;;;;;;4863299;29;20069;-72
2022/10/25 05:08:52;;;;;;;0.10;0.10;;;13.20;99.90;;;;;;4855148;29;20041;-73
2022/10/25 05:11:20;;;;;;;0.10;0.10;;;13.20;99.90;;;;;;4833397;29;20080;-73
2022/10/25 05:13:46;;;;;;;0.10;0.10;;;13.10;99.90;;;;;;4839248;29;20963;-73
2022/10/25 05:16:16;;;;;;;0.10;0.10;;;13.10;99.90;;;;;;4872671;29;20052;-73
2022/10/25 05:18:44;;;;;;;0.17;0.17;;;13.10;99.90;;;;;;4857262;29;20045;-73
2022/10/25 05:21:14;;;;;;;0.20;0.20;;;13.10;99.90;;;;;;4869483;29;20073;-73
2022/10/25 05:23:39;;;;;;;0.10;0.10;;;13.10;99.90;;;;;;4843201;29;20300;-72
2022/10/25 05:26:08;;;;;;;0.20;0.20;;;13.10;99.90;;;;;;4856076;29;20053;-73
2022/10/25 05:28:35;;;;;;;0.13;0.13;;;13.10;99.90;;;;;;4871919;29;20085;-73
2022/10/25 05:31:05;;;;;;;0.17;0.17;;;13.00;99.90;;;;;;4840866;29;20128;-73
2022/10/25 05:33:32;;;;;;;0.20;0.20;;;13.10;99.90;;;;;;4855610;29;20051;-73
2022/10/25 05:35:59;;;;;;;0.20;0.20;;;13.10;99.90;;;;;;4841940;29;20050;-72
2022/10/25 05:38:25;;;;;;;0.20;0.20;;;13.10;99.90;;;;;;4853174;29;20304;-73
2022/10/25 05:40:56;;;;;;;0.10;0.10;;;13.10;99.90;;;;;;4858838;29;20735;-72
2022/10/25 05:43:22;;;;;;;0.20;0.20;;;13.10;99.90;;;;;;4857473;29;21185;-73
2022/10/25 05:45:48;;;;;;;0.10;0.10;;;13.10;99.90;;;;;;4856097;29;20301;-73
2022/10/25 05:48:14;;;;;;;0.10;0.10;;;13.10;99.90;;;;;;4839530;29;20056;-73
2022/10/25 05:50:43;;;;;;;0.10;0.10;;;13.10;99.90;;;;;;4871017;29;20053;-73
2022/10/25 05:53:08;;;;;;;0.10;0.10;;;13.10;99.90;;;;;;4858579;29;20072;-73
2022/10/25 05:55:34;;;;;;;0.20;0.20;;;13.20;99.90;;;;;;4857116;29;20476;-73
2022/10/25 05:57:59;;;;;;;0.10;0.10;;;13.10;99.90;;;;;;4855775;29;20046;-73
2022/10/25 06:00:25;;;;;;;0.10;0.10;;;13.20;99.90;;;;;;4871363;29;20060;-73
2022/10/25 06:02:51;;;;;;;0.13;0.13;;;13.20;99.90;;;;;;4858024;29;20050;-73
2022/10/25 06:05:16;;;;;;;0.13;0.13;;;13.20;99.90;;;;;;4840904;29;20057;-73
2022/10/25 06:07:42;;;;;;;0.13;0.13;;;13.20;99.90;;;;;;4855312;29;20098;-73
2022/10/25 06:10:08;;;;;;;0.15;0.15;;;13.20;99.90;;;;;;4857264;29;20050;-73
2022/10/25 06:12:34;;;;;;;0.10;0.10;;;13.20;99.90;;;;;;4834151;29;20045;-73
2022/10/25 06:15:00;;;;;;;0.10;0.10;;;13.20;99.90;;;;;;4857602;29;20489;-73
2022/10/25 06:17:25;;;;;;;0.20;0.20;;;13.20;99.90;;;;;;4851485;29;20045;-73
2022/10/25 06:19:51;;;;;;;0.20;0.20;;;13.30;99.90;;;;;;4853643;29;20124;-73
2022/10/25 06:22:17;;;;;;;0.20;0.20;;;13.30;99.90;;;;;;4855760;29;20077;-73
2022/10/25 06:24:42;;;;;;;0.10;0.10;;;13.30;99.90;;;;;;4840660;29;20089;-74
2022/10/25 06:27:08;;;;;;;0.20;0.20;;;13.20;99.90;;;;;;4855322;29;20159;-73
2022/10/25 06:29:33;;;;;;;0.10;0.10;;;13.30;99.90;;;;;;4865366;29;20056;-73
2022/10/25 06:31:59;;;;;;;0.10;0.10;;;13.20;99.90;;;;;;4862971;29;20569;-73
2022/10/25 06:34:24;;;;;;;0.13;0.13;;;13.20;99.90;;;;;;4856741;29;20050;-73
2022/10/25 06:36:50;;;;;;;0.20;0.15;;;13.20;99.90;;;;;;4839658;29;20057;-73
2022/10/25 06:39:16;;;;;;;0.20;0.20;;;13.10;99.90;;;;;;4841096;29;20798;-73
2022/10/25 06:41:41;;;;;;;0.10;0.10;;;13.20;99.90;;;;;;4839396;29;20116;-72
2022/10/25 06:44:07;;;;;;;0.10;0.10;;;13.20;99.90;;;;;;4840850;29;20057;-73
2022/10/25 06:46:36;;;;;;;0.10;0.10;;;13.20;99.90;;;;;;4857216;29;20046;-73
2022/10/25 06:49:04;;;;;;;0.20;0.20;;;13.20;99.90;;;;;;4853601;29;20056;-72
2022/10/25 06:51:31;;;;;;;0.20;0.20;;;13.20;99.90;;;;;;4834170;29;20049;-72
2022/10/25 06:53:59;;;;;;;0.20;0.20;;;13.20;99.90;;;;;;4839626;29;20053;-72
2022/10/25 06:56:26;;;;;;;0.20;0.20;;;13.20;99.90;;;;;;4840348;29;20056;-72
2022/10/25 06:58:52;;;;;;;0.20;0.20;;;13.20;99.90;;;;;;4847959;29;20490;-72
2022/10/25 07:01:20;;;;;;;0.20;0.20;;;13.20;99.90;;;;;;4840391;29;20049;-73
2022/10/25 07:03:46;;;;;;;0.10;0.10;;;13.20;99.90;;;;;;4843637;29;20520;-72
2022/10/25 07:06:17;;;;;;;0.10;0.10;;;13.20;99.90;;;;;;4852978;29;20045;-72
2022/10/25 07:08:45;;;;;;;0.20;0.20;;;13.20;99.90;;;;;;4857949;29;20053;-72
2022/10/25 07:11:14;;;;;;;0.20;0.20;;;13.20;99.90;;;;;;4862306;29;20996;-73
2022/10/25 07:13:39;;;;;;;0.20;0.20;;;13.20;99.90;;;;;;4843318;29;20046;-73
2022/10/25 07:16:08;;;;;;;0.20;0.20;;;13.20;99.90;;;;;;4864284;29;20044;-72
2022/10/25 07:18:34;;;;;;;0.20;0.20;;;13.20;99.90;;;;;;4865124;29;20046;-73
2022/10/25 07:21:05;;;;;;;0.10;0.10;;;13.20;99.90;;;;;;4854831;29;20054;-73
2022/10/25 07:23:32;;;;;;;0.10;0.10;;;13.20;99.90;;;;;;4853363;29;20652;-73
2022/10/25 07:25:58;;;;;;;0.20;0.20;;;13.30;99.90;;;;;;4862287;29;20435;-73
2022/10/25 07:28:24;;;;;;;0.20;0.20;;;13.30;99.90;;;;;;4861176;29;20046;-72
2022/10/25 07:30:50;;;;;;;0.10;0.10;;;13.30;99.90;;;;;;4844269;29;20048;-73
2022/10/25 07:33:18;;;;;;;0.20;0.20;;;13.30;99.90;;;;;;4850000;29;20042;-73
2022/10/25 07:35:45;;;;;;;0.10;0.10;;;13.30;99.90;;;;;;4836959;29;20053;-73
2022/10/25 07:38:12;;;;;;;0.10;0.10;;;13.30;99.90;;;;;;4825825;29;20098;-72
2022/10/25 07:40:37;;;;;;;0.13;0.13;;;13.40;99.90;;;;;;4857336;29;20409;-73
2022/10/25 07:43:03;;;;;;;0.10;0.10;;;13.40;99.90;;;;;;4849642;29;20053;-73
2022/10/25 07:45:29;;;;;;;0.10;0.10;;;13.30;99.90;;;;;;4863294;29;20045;-72
2022/10/25 07:47:54;;;;;;;0.20;0.20;;;13.40;99.90;;;;;;4860098;29;20037;-72
2022/10/25 07:50:20;;;;;;;0.10;0.10;;;13.40;99.90;;;;;;4861486;29;20087;-73
2022/10/25 07:52:46;;;;;;;0.20;0.20;;;13.40;99.90;;;;;;4879550;29;20120;-73
2022/10/25 07:55:12;;;;;;;0.10;0.10;;;13.50;99.90;;;;;;4855478;29;20049;-73
2022/10/25 07:57:38;;;;;;;0.20;0.20;;;13.50;99.90;;;;;;4852701;29;20045;-73
2022/10/25 08:00:06;;;;;;;0.10;0.10;;;13.50;99.90;;;;;;4879093;29;20128;-73
2022/10/25 08:02:31;;;;;;;0.20;0.20;;;13.50;99.90;;;;;;4843392;29;20490;-72
2022/10/25 08:04:57;;;;;;;0.10;0.10;;;13.60;99.90;;;;;;4838297;29;20057;-73
2022/10/25 08:07:23;;;;;;;0.10;0.10;;;13.60;99.90;;;;;;4864066;29;20053;-72
2022/10/25 08:09:48;;;;;;;0.10;0.10;;;13.60;99.90;;;;;;4878488;29;20056;-73
2022/10/25 08:12:14;;;;;;;0.13;0.13;;;13.90;99.90;;;;;;4871818;29;20037;-73
2022/10/25 08:14:40;;;;;;;0.10;0.10;;;13.70;99.90;;;;;;4864206;29;20048;-72
2022/10/25 08:17:05;;;;;;;0.10;0.10;;;13.70;99.90;;;;;;4876529;29;20045;-73
2022/10/25 08:19:31;;;;;;;0.10;0.10;;;13.70;99.90;;;;;;4868785;29;20076;-73
2022/10/25 08:21:57;;;;;;;0.10;0.10;;;13.70;99.90;;;;;;4870465;29;20408;-74
2022/10/25 08:24:22;;;;;;;0.17;0.17;;;13.70;99.90;;;;;;4875632;29;20037;-72
2022/10/25 08:26:48;;;;;;;0.10;0.10;;;13.80;99.90;;;;;;4875670;29;20056;-72
2022/10/25 08:29:14;;;;;;;0.10;0.10;;;13.80;99.90;;;;;;4875592;29;20041;-74
2022/10/25 08:31:39;;;;;;;0.10;0.10;;;13.90;99.90;;;;;;4879814;29;20793;-73
2022/10/25 08:34:08;;;;;;;0.10;0.10;;;13.90;99.90;;;;;;4877408;29;20102;-74
2022/10/25 08:36:37;;;;;;;0.10;0.10;;;13.90;99.90;;;;;;4885313;29;20041;-72
2022/10/25 08:39:02;;;;;;;0.10;0.10;;;14.00;99.90;;;;;;4858350;29;20050;-71
2022/10/25 08:41:43;;;;;;;0.10;0.10;;;14.00;99.90;;;;;;4875387;29;20051;-73
2022/10/25 08:44:16;;;;;;;0.20;0.20;;;14.00;99.90;;;;;;4858663;29;20060;-71
2022/10/25 08:47:05;;;;;;;0.20;0.20;;;14.10;99.90;;;;;;4857031;29;20653;-73
2022/10/25 08:49:40;;;;;;;0.20;0.20;;;14.20;99.90;;;;;;4857859;29;20340;-72
2022/10/25 08:52:34;;;;;;;0.10;0.10;;;14.20;99.90;;;;;;4863319;29;20049;-73
2022/10/25 08:55:03;;;;;;;0.20;0.20;;;14.20;99.90;;;;;;4871464;29;20140;-73
2022/10/25 08:57:36;;;;;;;0.20;0.20;;;14.30;99.90;;;;;;4874848;29;20382;-73
2022/10/25 09:00:09;;;;;;;0.10;0.10;;;14.20;99.90;;;;;;4855561;29;20076;-73
2022/10/25 09:02:50;;;;;;;0.20;0.20;;;14.30;99.90;;;;;;4870723;29;20158;-72
2022/10/25 09:05:40;;;;;;;0.20;0.20;;;14.30;99.90;;;;;;4876954;29;20037;-72
2022/10/25 09:08:14;;;;;;;0.15;0.15;;;14.30;99.90;;;;;;4873174;29;20552;-72
2022/10/25 09:10:46;;;;;;;0.10;0.10;;;14.30;99.90;;;;;;4878424;29;20060;-73
2022/10/25 09:13:53;;;;;;;0.10;0.10;;;14.30;99.90;;;;;;4876323;29;20076;-73
2022/10/25 09:16:33;;;;;;;0.10;0.10;;;14.40;99.90;;;;;;4858495;29;20409;-72
2022/10/25 09:19:02;;;;;;;0.10;0.10;;;14.40;99.90;;;;;;4860853;29;20367;-73
2022/10/25 09:21:51;;;;;;;0.10;0.10;;;14.40;99.90;;;;;;4861068;29;20067;-72
2022/10/25 09:24:53;;;;;;;0.20;0.20;;;14.50;99.90;;;;;;4877997;29;20044;-73
2022/10/25 09:27:32;;;;;;;0.20;0.20;;;14.50;99.90;;;;;;4875355;29;20041;-73
2022/10/25 09:30:04;;;;;;;0.10;0.10;;;14.50;99.90;;;;;;4877148;29;20053;-72
2022/10/25 09:32:35;;;;;;;;;;;14.50;99.90;;;;;;4861099;29;20044;-73
2022/10/25 09:35:03;;;;;;;0.10;0.10;;;14.60;99.90;;;;;;4863468;29;20333;-73
2022/10/25 09:37:40;;;;;;;0.15;0.15;;;14.60;99.90;;;;;;4876352;29;20135;-72
2022/10/25 09:40:14;;;;;;;0.17;0.17;;;14.60;99.90;;;;;;4870207;29;20037;-73
2022/10/25 09:42:51;;;;;;;0.10;0.10;;;14.60;99.90;;;;;;4881827;29;20088;-72
2022/10/25 09:45:52;;;;;;;0.10;0.10;;;14.70;99.90;;;;;;4876974;29;20581;-73
2022/10/25 09:48:17;;;;;;;0.20;0.20;;;14.60;99.90;;;;;;4872060;29;20063;-73
2022/10/25 09:51:19;;;;;;;0.15;0.15;;;14.70;99.90;;;;;;4875749;29;20045;-72
2022/10/25 09:53:45;;;;;;;0.10;0.10;;;14.70;99.90;;;;;;4837186;29;20069;-73
2022/10/25 09:56:11;;;;;;;0.13;0.13;;;14.80;99.90;;;;;;4841156;29;20145;-73
2022/10/25 09:58:45;;;;;;;0.10;0.10;;;14.80;99.90;;;;;;4856838;29;20049;-74
2022/10/25 10:01:16;;;;;;;0.10;0.10;;;14.80;99.90;;;;;;4841088;29;20096;-73
2022/10/25 10:03:41;;;;;;;0.10;0.10;;;14.80;99.90;;;;;;4857888;29;20053;-72
2022/10/25 10:06:32;;;;;;;0.10;0.10;;;14.80;99.90;;;;;;4848761;29;20037;-72
2022/10/25 10:09:01;;;;;;;0.10;0.10;;;14.90;99.90;;;;;;4874278;29;20209;-73
2022/10/25 10:11:29;;;;;;;0.10;0.10;;;14.90;99.90;;;;;;4858063;29;20184;-73
2022/10/25 10:14:16;;;;;;;0.10;0.10;;;14.90;99.90;;;;;;4876247;29;20052;-72
2022/10/25 10:16:52;;;;;;;0.10;0.10;;;14.90;99.90;;;;;;4844810;29;20410;-72
2022/10/25 10:19:24;;;;;;;0.10;0.10;;;14.90;99.90;;;;;;4856285;29;20079;-72
2022/10/25 10:21:51;;;;;;;0.10;0.10;;;14.90;99.90;;;;;;4857128;29;20448;-72
2022/10/25 10:24:30;;;;;;;0.20;0.20;;;15.00;99.90;;;;;;4875053;29;20123;-72
2022/10/25 10:27:10;;;;;;;0.10;0.10;;;15.00;99.90;;;;;;4874689;29;20144;-72
2022/10/25 10:29:50;;;;;;;0.20;0.20;;;15.00;99.90;;;;;;4875807;29;20076;-72
2022/10/25 10:32:33;;;;;;;0.20;0.20;;;15.00;99.90;;;;;;4875833;29;20057;-72
2022/10/25 10:35:01;;;;;;;0.20;0.20;;;15.00;99.90;;;;;;4876373;29;20039;-72
2022/10/25 10:37:31;;;;;;;0.20;0.20;;;15.00;99.90;;;;;;4874199;29;20080;-72
2022/10/25 10:40:03;;;;;;;0.10;0.10;;;15.10;99.90;;;;;;4876355;29;20060;-72
2022/10/25 10:42:28;;;;;;;0.20;0.20;;;15.00;99.90;;;;;;4874766;29;20053;-72
2022/10/25 10:45:06;;;;;;;0.20;0.20;;;15.10;99.90;;;;;;4875618;29;20460;-72
2022/10/25 10:47:39;;;;;;;0.10;0.10;;;15.70;99.90;;;;;;4875916;29;20053;-72
2022/10/25 10:50:23;;;;;;;0.20;0.20;;;15.30;99.90;;;;;;4874061;29;20056;-72
2022/10/25 10:52:51;;;;;;;0.10;0.10;;;15.40;99.90;;;;;;4875911;29;20076;-72
2022/10/25 10:55:32;;;;;;;0.10;0.10;;;15.50;99.90;;;;;;4875890;29;20052;-72
2022/10/25 10:58:21;;;;;;;0.20;0.20;;;15.60;99.90;;;;;;4874191;29;20053;-72
2022/10/25 11:01:02;;;;;;;0.20;0.20;;;15.60;99.90;;;;;;4859197;29;20053;-72
2022/10/25 11:03:40;;;;;;;0.20;0.20;;;15.70;99.90;;;;;;4856801;29;20045;-72
2022/10/25 11:06:12;;;;;;;0.20;0.20;;;15.70;99.90;;;;;;4855710;29;20453;-72
2022/10/25 11:08:43;;;;;;;0.10;0.10;;;15.80;99.90;;;;;;4838944;29;20153;-72
2022/10/25 11:11:18;;;;;;;0.20;0.20;;;15.80;99.90;;;;;;4856200;29;20506;-73
2022/10/25 11:13:57;;;;;;;0.10;0.10;;;16.00;99.90;;;;;;4855825;29;20042;-72
2022/10/25 11:16:38;;;;;;;0.20;0.20;;;16.10;99.90;;;;;;4851358;29;20537;-72
2022/10/25 11:19:28;;;;;;;0.20;0.20;;;16.10;99.90;;;;;;4854633;29;20585;-73
2022/10/25 11:21:59;;;;;;;0.10;0.10;;;16.10;99.90;;;;;;4857357;29;20084;-72
2022/10/25 11:24:46;;;;;;;0.20;0.20;;;16.10;99.90;;;;;;4857275;29;20057;-72
2022/10/25 11:27:31;;;;;;;0.10;0.10;;;16.10;99.90;;;;;;4854309;29;20154;-72
2022/10/25 11:30:08;;;;;;;0.20;0.20;;;16.10;99.90;;;;;;4856664;29;20045;-72
2022/10/25 11:32:39;;;;;;;0.20;0.20;;;16.10;99.90;;;;;;4855325;29;20050;-72
2022/10/25 11:35:15;;;;;;;0.20;0.20;;;16.10;99.90;;;;;;4835140;29;20283;-72
2022/10/25 11:37:51;;;;;;;0.20;0.20;;;16.20;99.90;;;;;;4852740;29;20394;-72
2022/10/25 11:40:28;;;;;;;0.15;0.15;;;16.10;99.90;;;;;;4854323;29;20063;-72
2022/10/25 11:42:59;;;;;;;0.20;0.20;;;16.20;99.90;;;;;;4854854;29;20049;-72
2022/10/25 11:45:30;;;;;;;;;;;16.20;99.90;;;;;;4869708;29;20097;-72
2022/10/25 11:48:22;;;;;;;0.20;0.20;;;16.20;99.90;;;;;;4855989;29;19931;-72
2022/10/25 11:51:15;;;;;;;0.10;0.10;;;16.20;99.90;;;;;;4857391;29;20045;-72
2022/10/25 11:54:17;;;;;;;0.20;0.20;;;16.20;99.90;;;;;;4847253;29;20055;-72
2022/10/25 11:57:00;;;;;;;0.20;0.20;;;16.20;99.90;;;;;;4854348;29;20379;-72
2022/10/25 12:00:00;;;;;;;0.20;0.20;;;16.30;99.90;;;;;;4856468;29;20061;-73
2022/10/25 12:02:38;;;;;;;0.20;0.20;;;16.30;99.90;;;;;;4870003;29;20053;-73
2022/10/25 12:05:15;;;;;;;0.20;0.20;;;16.40;99.90;;;;;;4855875;29;20053;-73
2022/10/25 12:07:47;;;;;;;0.10;0.10;;;16.50;99.90;;;;;;4864649;29;20053;-73
2022/10/25 12:10:46;;;;;;;0.20;0.20;;;16.50;99.90;;;;;;4890534;29;20052;-72
2022/10/25 12:13:27;;;;;;;0.20;0.20;;;16.50;99.90;;;;;;4866428;29;20057;-73
2022/10/25 12:15:55;;;;;;;0.20;0.20;;;16.50;99.90;;;;;;4877290;29;20051;-73
2022/10/25 12:18:38;;;;;;;0.20;0.20;;;16.50;99.90;;;;;;4851953;29;20052;-74
2022/10/25 12:21:05;;;;;;;0.20;0.20;;;16.60;99.90;;;;;;4862018;29;20052;-73
2022/10/25 12:23:41;;;;;;;0.20;0.20;;;16.80;99.90;;;;;;4886118;29;20089;-73
2022/10/25 12:26:35;;;;;;;0.20;0.20;;;17.00;99.90;;;;;;4865579;29;20080;-75
2022/10/25 12:29:13;;;;;;;0.20;0.20;;;17.60;99.90;;;;;;4850004;29;20053;-73
2022/10/25 12:31:55;;;;;;;0.13;0.13;;;18.00;99.90;;;;;;4860240;29;20085;-73
2022/10/25 12:34:33;;;;;;;0.10;0.10;;;18.10;99.90;;;;;;4857827;29;20045;-73
2022/10/25 12:37:32;;;;;;;0.10;0.10;;;17.80;99.90;;;;;;4864650;29;20053;-73
2022/10/25 12:39:58;;;;;;;0.20;0.20;;;17.70;99.90;;;;;;4874705;29;20057;-73
2022/10/25 12:42:34;;;;;;;0.20;0.20;;;17.70;99.90;;;;;;4875437;29;20609;-72
2022/10/25 12:45:18;;;;;;;0.10;0.10;;;18.40;99.90;;;;;;4876868;29;20404;-73
2022/10/25 12:47:52;;;;;;;0.20;0.20;;;18.60;99.90;;;;;;4877035;29;20115;-73
2022/10/25 12:50:37;;;;;;;0.20;0.20;;;19.10;99.90;;;;;;4874709;29;20450;-73
2022/10/25 12:53:26;;;;;;;0.20;0.20;;;19.80;99.90;;;;;;4853344;29;20049;-73
2022/10/25 12:56:16;;;;;;;0.20;0.20;;;21.40;99.90;;;;;;4868480;29;20081;-73
2022/10/25 12:58:55;;;;;;;0.20;0.20;;;23.20;99.90;;;;;;4866788;29;20408;-74
2022/10/25 13:01:26;;;;;;;0.20;0.20;;;23.80;99.90;;;;;;4873962;29;20036;-73
2022/10/25 13:04:20;;;;;;;0.20;0.20;;;23.30;99.90;;;;;;4873775;29;20097;-73
2022/10/25 13:06:47;;;;;;;0.20;0.20;;;22.90;99.90;;;;;;4867070;29;20044;-73
2022/10/25 13:09:17;;;;;;;0.20;0.20;;;23.00;99.90;;;;;;4862892;29;20108;-73
2022/10/25 13:11:57;;;;;;;0.20;0.20;;;22.40;99.90;;;;;;4860144;29;20096;-73